createdAt,value
2018-12-30T00:01:19.356Z,14.77
2018-12-30T00:03:48.251Z,17.33
2018-12-30T00:06:17.155Z,17.73
2018-12-30T00:08:46.228Z,16.80
2018-12-30T00:11:14.920Z,18.07
2018-12-30T00:13:43.600Z,17.30
2018-12-30T00:16:11.997Z,19.93
2018-12-30T00:18:40.976Z,17.97
2018-12-30T00:21:09.394Z,16.47
2018-12-30T00:23:37.757Z,19.67
2018-12-30T00:26:06.147Z,22.60
2018-12-30T00:28:34.605Z,15.80
2018-12-30T00:31:03.382Z,25.50
2018-12-30T00:33:32.679Z,24.00
2018-12-30T00:36:01.368Z,20.63
2018-12-30T00:38:29.773Z,13.73
2018-12-30T00:40:58.451Z,20.73
2018-12-30T00:43:26.845Z,20.13
2018-12-30T00:45:55.509Z,15.37
2018-12-30T00:48:23.913Z,14.57
2018-12-30T00:50:52.295Z,19.20
2018-12-30T00:53:20.942Z,15.43
2018-12-30T00:55:49.627Z,21.90
2018-12-30T00:58:18.020Z,25.43
2018-12-30T01:00:46.798Z,16.13
2018-12-30T01:03:15.489Z,26.80
2018-12-30T01:05:44.170Z,23.43
2018-12-30T01:08:12.572Z,23.80
2018-12-30T01:10:41.341Z,15.77
2018-12-30T01:13:09.834Z,22.60
2018-12-30T01:15:38.713Z,27.80
2018-12-30T01:18:07.094Z,19.00
2018-12-30T01:20:35.521Z,21.33
2018-12-30T01:23:03.921Z,27.40
2018-12-30T01:25:32.310Z,22.30
2018-12-30T01:28:00.735Z,24.37
2018-12-30T01:30:29.610Z,17.63
2018-12-30T01:32:58.283Z,20.70
2018-12-30T01:35:26.674Z,22.93
2018-12-30T01:37:55.455Z,19.50
2018-12-30T01:40:23.835Z,20.10
2018-12-30T01:42:52.844Z,25.03
2018-12-30T01:45:21.232Z,18.77
2018-12-30T01:47:49.611Z,27.60
2018-12-30T01:50:18.012Z,26.73
2018-12-30T01:52:46.411Z,26.73
2018-12-30T01:55:14.842Z,20.70
2018-12-30T01:57:43.277Z,21.07
2018-12-30T02:00:11.991Z,23.03
2018-12-30T02:02:40.393Z,24.00
2018-12-30T02:05:08.879Z,36.87
2018-12-30T02:07:37.257Z,28.10
2018-12-30T02:10:06.801Z,19.90
2018-12-30T02:12:35.633Z,22.67
2018-12-30T02:15:05.136Z,22.37
2018-12-30T02:17:33.816Z,15.40
2018-12-30T02:20:02.709Z,22.37
2018-12-30T02:22:31.804Z,22.23
2018-12-30T02:25:00.189Z,25.70
2018-12-30T02:27:28.687Z,29.70
2018-12-30T02:29:57.488Z,27.73
2018-12-30T02:32:26.545Z,24.70
2018-12-30T02:34:55.858Z,28.43
2018-12-30T02:37:24.518Z,24.30
2018-12-30T02:39:53.227Z,23.73
2018-12-30T02:42:21.653Z,26.03
2018-12-30T02:44:50.158Z,24.57
2018-12-30T02:47:19.125Z,22.40
2018-12-30T02:49:47.519Z,23.50
2018-12-30T02:52:15.905Z,20.13
2018-12-30T02:54:44.554Z,24.53
2018-12-30T02:57:12.948Z,18.60
2018-12-30T02:59:42.503Z,18.30
2018-12-30T03:02:10.883Z,23.80
2018-12-30T03:04:39.703Z,22.67
2018-12-30T03:07:08.094Z,24.80
2018-12-30T03:09:36.846Z,24.63
2018-12-30T03:12:06.139Z,27.70
2018-12-30T03:14:34.830Z,24.10
2018-12-30T03:17:03.232Z,21.47
2018-12-30T03:19:31.613Z,22.60
2018-12-30T03:22:00.007Z,22.00
2018-12-30T03:24:28.469Z,23.43
2018-12-30T03:26:57.234Z,19.20
2018-12-30T03:29:25.633Z,16.87
2018-12-30T03:31:54.052Z,22.57
2018-12-30T03:34:22.436Z,23.77
2018-12-30T03:36:50.852Z,19.30
2018-12-30T03:39:19.222Z,20.80
2018-12-30T03:41:47.622Z,16.17
2018-12-30T03:44:16.303Z,18.53
2018-12-30T03:46:45.493Z,24.67
2018-12-30T03:49:13.879Z,19.67
2018-12-30T03:51:42.261Z,18.47
2018-12-30T03:54:10.667Z,28.90
2018-12-30T03:56:39.046Z,17.43
2018-12-30T03:59:07.433Z,19.07
2018-12-30T04:01:36.417Z,14.40
2018-12-30T04:04:05.089Z,23.37
2018-12-30T04:06:33.760Z,24.50
2018-12-30T04:09:02.160Z,19.60
2018-12-30T04:11:30.562Z,15.57
2018-12-30T04:13:58.953Z,19.67
2018-12-30T04:16:27.336Z,23.33
2018-12-30T04:18:56.161Z,22.87
2018-12-30T04:21:24.847Z,22.17
2018-12-30T04:23:53.250Z,20.40
2018-12-30T04:26:21.632Z,25.07
2018-12-30T04:28:50.292Z,24.10
2018-12-30T04:31:18.693Z,16.13
2018-12-30T04:33:47.137Z,21.53
2018-12-30T04:36:15.553Z,23.53
2018-12-30T04:38:43.958Z,26.70
2018-12-30T04:41:12.343Z,18.17
2018-12-30T04:43:41.211Z,25.33
2018-12-30T04:46:09.598Z,20.50
2018-12-30T04:48:38.581Z,25.30
2018-12-30T04:51:06.974Z,18.87
2018-12-30T04:53:35.370Z,21.53
2018-12-30T04:56:04.033Z,21.97
2018-12-30T04:58:32.418Z,19.33
2018-12-30T05:01:00.822Z,34.33
2018-12-30T05:03:29.655Z,27.50
2018-12-30T05:05:58.536Z,17.10
2018-12-30T05:08:26.930Z,31.23
2018-12-30T05:10:55.324Z,20.70
2018-12-30T05:13:23.705Z,18.80
2018-12-30T05:15:52.105Z,29.97
2018-12-30T05:18:20.509Z,18.47
2018-12-30T05:20:49.222Z,19.10
2018-12-30T05:23:17.615Z,20.03
2018-12-30T05:25:46.004Z,25.33
2018-12-30T05:28:14.392Z,30.93
2018-12-30T05:30:43.002Z,23.37
2018-12-30T05:33:11.366Z,19.00
2018-12-30T05:35:40.185Z,23.70
2018-12-30T05:38:09.003Z,26.60
2018-12-30T05:40:37.692Z,21.10
2018-12-30T05:43:06.396Z,19.17
2018-12-30T05:45:35.055Z,22.17
2018-12-30T05:48:03.447Z,18.23
2018-12-30T05:50:32.332Z,21.33
2018-12-30T05:53:00.721Z,20.37
2018-12-30T05:55:29.112Z,25.70
2018-12-30T05:57:57.507Z,16.03
2018-12-30T06:00:25.911Z,24.93
2018-12-30T06:02:54.294Z,20.70
2018-12-30T06:05:22.695Z,20.03
2018-12-30T06:07:51.085Z,20.10
2018-12-30T06:10:19.492Z,22.63
2018-12-30T06:12:48.017Z,19.70
2018-12-30T06:15:16.398Z,16.80
2018-12-30T06:17:44.798Z,28.00
2018-12-30T06:20:13.184Z,14.30
2018-12-30T06:22:49.325Z,22.33
2018-12-30T06:25:11.787Z,16.67
2018-12-30T06:27:40.449Z,22.33
2018-12-30T06:30:08.824Z,22.93
2018-12-30T06:32:37.444Z,24.10
2018-12-30T06:35:06.561Z,16.27
2018-12-30T06:37:35.183Z,19.57
2018-12-30T06:40:11.090Z,27.07
2018-12-30T06:42:35.068Z,22.43
2018-12-30T06:45:03.532Z,17.63
2018-12-30T06:47:32.222Z,21.53
2018-12-30T06:50:00.653Z,21.63
2018-12-30T06:52:29.007Z,18.83
2018-12-30T06:54:57.393Z,24.13
2018-12-30T06:57:25.796Z,25.47
2018-12-30T06:59:54.232Z,23.10
2018-12-30T07:02:22.683Z,28.43
2018-12-30T07:04:51.067Z,30.70
2018-12-30T07:07:19.473Z,17.20
2018-12-30T07:09:47.894Z,16.30
2018-12-30T07:12:16.277Z,16.70
2018-12-30T07:14:46.441Z,21.17
2018-12-30T07:17:14.828Z,18.67
2018-12-30T07:19:43.224Z,24.17
2018-12-30T07:22:11.612Z,16.37
2018-12-30T07:24:40.011Z,19.50
2018-12-30T07:27:08.402Z,22.03
2018-12-30T07:29:37.242Z,25.80
2018-12-30T07:32:05.628Z,20.57
2018-12-30T07:34:34.991Z,17.93
2018-12-30T07:37:03.390Z,15.70
2018-12-30T07:39:31.803Z,18.50
2018-12-30T07:42:00.435Z,20.03
2018-12-30T07:44:30.146Z,16.87
2018-12-30T07:46:58.538Z,17.10
2018-12-30T07:49:26.923Z,17.00
2018-12-30T07:51:55.319Z,21.97
2018-12-30T07:54:23.702Z,22.13
2018-12-30T07:56:52.086Z,20.70
2018-12-30T07:59:20.498Z,19.80
2018-12-30T08:01:48.888Z,19.77
2018-12-30T08:04:17.280Z,21.67
2018-12-30T08:06:45.664Z,17.50
2018-12-30T08:09:14.320Z,21.37
2018-12-30T08:11:42.712Z,17.60
2018-12-30T08:14:11.094Z,18.77
2018-12-30T08:16:39.780Z,16.80
2018-12-30T08:19:08.168Z,14.13
2018-12-30T08:21:36.964Z,19.03
2018-12-30T08:24:05.647Z,12.37
2018-12-30T08:26:34.046Z,24.60
2018-12-30T08:29:02.830Z,21.83
2018-12-30T08:31:31.709Z,24.07
2018-12-30T08:34:00.106Z,18.10
2018-12-30T08:36:28.909Z,26.13
2018-12-30T08:38:57.576Z,15.50
2018-12-30T08:41:26.527Z,15.63
2018-12-30T08:43:54.933Z,20.07
2018-12-30T08:46:23.647Z,20.37
2018-12-30T08:48:52.039Z,19.10
2018-12-30T08:51:20.442Z,13.30
2018-12-30T08:53:48.822Z,17.97
2018-12-30T08:56:17.202Z,18.80
2018-12-30T08:58:45.600Z,21.30
2018-12-30T09:01:14.541Z,20.70
2018-12-30T09:03:42.925Z,16.50
2018-12-30T09:09:39.652Z,14.40
2018-12-30T09:12:08.045Z,18.50
2018-12-30T09:14:36.429Z,12.60
2018-12-30T09:17:04.895Z,15.23
2018-12-30T09:19:33.683Z,17.90
2018-12-30T09:22:02.077Z,17.77
2018-12-30T09:24:30.842Z,15.53
2018-12-30T09:26:59.532Z,20.80
2018-12-30T09:29:28.047Z,19.13
2018-12-30T09:31:56.909Z,15.30
2018-12-30T09:34:25.299Z,18.33
2018-12-30T09:36:53.703Z,19.77
2018-12-30T09:39:22.088Z,14.83
2018-12-30T09:41:50.833Z,14.83
2018-12-30T09:44:19.306Z,15.60
2018-12-30T09:46:47.687Z,17.20
2018-12-30T09:49:16.086Z,13.23
2018-12-30T09:51:44.483Z,19.00
2018-12-30T09:54:12.875Z,14.43
2018-12-30T09:56:41.516Z,14.13
2018-12-30T09:59:09.900Z,16.73
2018-12-30T10:01:38.566Z,16.37
2018-12-30T10:04:07.012Z,15.27
2018-12-30T10:06:35.401Z,13.20
2018-12-30T10:09:05.340Z,12.07
2018-12-30T10:11:33.908Z,16.80
2018-12-30T10:14:02.381Z,17.60
2018-12-30T10:16:30.762Z,15.87
2018-12-30T10:18:59.156Z,18.43
2018-12-30T10:21:27.559Z,19.10
2018-12-30T10:23:55.957Z,23.43
2018-12-30T10:26:24.357Z,13.73
2018-12-30T10:28:52.744Z,16.83
2018-12-30T10:31:21.141Z,13.10
2018-12-30T10:33:49.681Z,15.03
2018-12-30T10:36:18.086Z,16.97
2018-12-30T10:38:46.499Z,15.23
2018-12-30T10:41:14.899Z,15.93
2018-12-30T10:43:43.297Z,14.03
2018-12-30T10:46:11.686Z,16.70
2018-12-30T10:48:40.514Z,16.90
2018-12-30T10:51:08.894Z,14.10
2018-12-30T10:53:37.378Z,11.90
2018-12-30T10:56:05.880Z,22.93
2018-12-30T10:58:34.284Z,17.10
2018-12-30T11:01:02.666Z,12.80
2018-12-30T11:03:31.073Z,14.80
2018-12-30T11:06:01.095Z,20.20
2018-12-30T11:08:29.480Z,15.27
2018-12-30T11:10:57.950Z,25.63
2018-12-30T11:13:26.434Z,11.63
2018-12-30T11:15:54.983Z,12.87
2018-12-30T11:18:23.393Z,13.77
2018-12-30T11:20:51.855Z,15.50
2018-12-30T11:23:20.291Z,13.63
2018-12-30T11:25:48.698Z,19.13
2018-12-30T11:28:17.082Z,15.30
2018-12-30T11:30:45.470Z,14.60
2018-12-30T11:33:14.018Z,13.10
2018-12-30T11:35:42.423Z,16.70
2018-12-30T11:38:10.820Z,15.30
2018-12-30T11:40:39.211Z,16.27
2018-12-30T11:43:07.641Z,14.83
2018-12-30T11:45:36.140Z,18.03
2018-12-30T11:48:05.012Z,12.83
2018-12-30T11:50:33.396Z,14.53
2018-12-30T11:53:01.986Z,16.93
2018-12-30T11:55:30.646Z,12.80
2018-12-30T11:57:59.052Z,12.87
2018-12-30T12:00:28.051Z,20.07
2018-12-30T12:02:56.692Z,21.00
2018-12-30T12:05:25.076Z,14.07
2018-12-30T12:07:53.468Z,16.70
2018-12-30T12:10:22.421Z,19.57
2018-12-30T12:12:50.806Z,15.20
2018-12-30T12:15:26.179Z,19.70
2018-12-30T12:17:54.589Z,13.67
2018-12-30T12:20:22.980Z,19.37
2018-12-30T12:22:51.363Z,16.97
2018-12-30T12:25:20.031Z,14.13
2018-12-30T12:27:48.410Z,13.23
2018-12-30T12:30:16.796Z,14.30
2018-12-30T12:32:46.124Z,15.53
2018-12-30T12:35:14.522Z,15.07
2018-12-30T12:37:42.916Z,17.23
2018-12-30T12:40:11.441Z,17.20
2018-12-30T12:42:40.477Z,18.87
2018-12-30T12:45:09.109Z,15.50
2018-12-30T12:47:37.500Z,16.53
2018-12-30T12:50:06.638Z,21.23
2018-12-30T12:52:35.024Z,18.17
2018-12-30T12:55:03.586Z,16.80
2018-12-30T12:57:31.978Z,15.47
2018-12-30T13:00:00.366Z,15.57
2018-12-30T13:02:28.773Z,17.17
2018-12-30T13:04:57.153Z,15.50
2018-12-30T13:07:25.541Z,18.67
2018-12-30T13:09:53.946Z,19.83
2018-12-30T13:12:22.358Z,17.33
2018-12-30T13:14:50.744Z,18.03
2018-12-30T13:17:19.145Z,24.70
2018-12-30T13:19:49.076Z,16.37
2018-12-30T13:22:17.466Z,23.77
2018-12-30T13:24:45.862Z,18.20
2018-12-30T13:27:14.291Z,18.83
2018-12-30T13:29:42.999Z,14.97
2018-12-30T13:32:11.724Z,21.20
2018-12-30T13:34:40.146Z,17.40
2018-12-30T13:37:08.541Z,18.13
2018-12-30T13:39:36.946Z,19.60
2018-12-30T13:42:05.339Z,20.50
2018-12-30T13:44:33.754Z,16.93
2018-12-30T13:47:02.138Z,19.87
2018-12-30T13:49:30.617Z,21.53
2018-12-30T13:51:59.162Z,20.13
2018-12-30T13:54:27.550Z,19.13
2018-12-30T13:56:55.953Z,15.13
2018-12-30T13:59:24.342Z,17.30
2018-12-30T14:01:53.070Z,15.10
2018-12-30T14:04:21.524Z,17.00
2018-12-30T14:06:50.227Z,16.40
2018-12-30T14:09:18.618Z,18.37
2018-12-30T14:11:59.627Z,19.77
2018-12-30T14:14:27.813Z,16.20
2018-12-30T14:16:56.436Z,16.60
2018-12-30T14:19:24.911Z,16.87
2018-12-30T14:21:53.301Z,15.20
2018-12-30T14:24:22.094Z,14.63
2018-12-30T14:26:50.495Z,15.27
2018-12-30T14:29:18.987Z,14.70
2018-12-30T14:31:47.569Z,15.87
2018-12-30T14:34:15.952Z,17.20
2018-12-30T14:36:44.408Z,16.43
2018-12-30T14:39:12.808Z,19.50
2018-12-30T14:41:41.267Z,16.30
2018-12-30T14:44:09.652Z,18.50
2018-12-30T14:46:38.093Z,17.77
2018-12-30T14:49:06.734Z,18.00
2018-12-30T14:51:35.391Z,22.50
2018-12-30T14:54:03.842Z,23.00
2018-12-30T14:56:32.446Z,16.07
2018-12-30T14:59:00.855Z,22.83
2018-12-30T15:01:29.268Z,14.50
2018-12-30T15:03:57.670Z,20.33
2018-12-30T15:06:26.077Z,18.20
2018-12-30T15:08:54.978Z,18.87
2018-12-30T15:11:23.635Z,18.33
2018-12-30T15:13:52.037Z,16.80
2018-12-30T15:16:20.636Z,18.73
2018-12-30T15:18:49.039Z,16.40
2018-12-30T15:21:17.420Z,26.37
2018-12-30T15:23:46.251Z,17.43
2018-12-30T15:26:14.651Z,16.67
2018-12-30T15:28:43.040Z,17.63
2018-12-30T15:31:11.438Z,20.50
2018-12-30T15:33:40.391Z,16.17
2018-12-30T15:36:08.788Z,22.13
2018-12-30T15:38:37.183Z,17.40
2018-12-30T15:41:05.567Z,17.03
2018-12-30T15:43:34.038Z,18.00
2018-12-30T15:46:02.423Z,17.60
2018-12-30T15:48:31.005Z,16.33
2018-12-30T15:50:59.416Z,18.10
2018-12-30T15:53:27.799Z,20.23
2018-12-30T15:55:56.228Z,20.23
2018-12-30T15:58:24.703Z,17.80
2018-12-30T16:00:53.094Z,24.23
2018-12-30T16:03:21.515Z,21.57
2018-12-30T16:05:57.423Z,20.60
2018-12-30T16:08:20.026Z,20.53
2018-12-30T16:10:48.419Z,25.70
2018-12-30T16:13:16.953Z,20.70
2018-12-30T16:15:45.413Z,19.20
2018-12-30T16:18:13.816Z,18.70
2018-12-30T16:20:42.840Z,19.23
2018-12-30T16:23:11.214Z,22.30
2018-12-30T16:25:39.699Z,17.93
2018-12-30T16:28:08.443Z,23.87
2018-12-30T16:30:37.106Z,18.80
2018-12-30T16:33:05.557Z,21.70
2018-12-30T16:35:34.489Z,18.80
2018-12-30T16:38:02.874Z,28.67
2018-12-30T16:40:31.405Z,20.43
2018-12-30T16:42:59.798Z,21.70
2018-12-30T16:45:28.250Z,28.40
2018-12-30T16:47:57.378Z,28.30
2018-12-30T16:50:25.773Z,22.83
2018-12-30T16:52:54.197Z,23.00
2018-12-30T16:55:22.946Z,23.70
2018-12-30T16:57:51.403Z,30.03
2018-12-30T17:00:19.806Z,25.00
2018-12-30T17:02:48.265Z,26.10
2018-12-30T17:05:16.747Z,21.97
2018-12-30T17:07:45.213Z,27.10
2018-12-30T17:10:13.682Z,27.00
2018-12-30T17:12:42.074Z,25.73
2018-12-30T17:15:12.630Z,25.77
2018-12-30T17:18:03.853Z,29.33
2018-12-30T17:20:32.248Z,28.10
2018-12-30T17:23:00.630Z,30.10
2018-12-30T17:25:29.059Z,29.10
2018-12-30T17:28:00.953Z,33.63
2018-12-30T17:30:29.779Z,31.33
2018-12-30T17:33:01.663Z,29.10
2018-12-30T17:35:30.388Z,28.60
2018-12-30T17:37:58.842Z,30.60
2018-12-30T17:40:27.296Z,29.17
2018-12-30T17:42:55.751Z,31.23
2018-12-30T17:45:24.304Z,30.10
2018-12-30T17:47:53.222Z,30.77
2018-12-30T17:50:21.638Z,30.30
2018-12-30T17:52:50.046Z,32.30
2018-12-30T17:55:19.483Z,30.50
2018-12-30T17:57:48.180Z,35.00
2018-12-30T18:00:16.620Z,34.80
2018-12-30T18:02:45.021Z,35.90
2018-12-30T18:05:13.504Z,34.37
2018-12-30T18:07:41.950Z,36.53
2018-12-30T18:10:10.464Z,34.70
2018-12-30T18:12:39.041Z,34.67
2018-12-30T18:15:08.556Z,36.50
2018-12-30T18:17:41.289Z,35.27
2018-12-30T18:20:08.276Z,36.63
2018-12-30T18:22:38.810Z,39.47
2018-12-30T18:25:09.477Z,36.50
2018-12-30T18:27:39.084Z,40.00
2018-12-30T18:30:08.858Z,37.90
2018-12-30T18:32:37.248Z,37.97
2018-12-30T18:35:06.037Z,40.10
2018-12-30T18:37:35.236Z,38.93
2018-12-30T18:40:05.440Z,48.20
2018-12-30T18:42:33.823Z,43.13
2018-12-30T18:45:02.207Z,38.70
2018-12-30T18:47:30.602Z,41.13
2018-12-30T18:49:59.601Z,46.33
2018-12-30T18:52:27.989Z,42.97
2018-12-30T18:54:58.821Z,43.53
2018-12-30T18:57:29.878Z,41.57
2018-12-30T18:59:59.644Z,38.43
2018-12-30T19:02:31.284Z,38.57
2018-12-30T19:05:08.817Z,43.27
2018-12-30T19:07:37.599Z,40.20
2018-12-30T19:10:07.497Z,40.13
2018-12-30T19:12:36.180Z,37.67
2018-12-30T19:15:06.226Z,38.93
2018-12-30T19:17:34.610Z,38.70
2018-12-30T19:20:04.388Z,42.20
2018-12-30T19:22:32.785Z,39.07
2018-12-30T19:25:01.494Z,39.13
2018-12-30T19:27:30.141Z,38.47
2018-12-30T19:29:58.840Z,40.53
2018-12-30T19:32:27.506Z,38.33
2018-12-30T19:34:59.112Z,38.57
2018-12-30T19:37:27.512Z,38.80
2018-12-30T19:39:55.922Z,38.83
2018-12-30T19:42:24.323Z,37.73
2018-12-30T19:44:52.745Z,37.97
2018-12-30T19:47:21.157Z,37.60
2018-12-30T19:49:49.775Z,37.80
2018-12-30T19:52:20.108Z,38.23
2018-12-30T19:54:48.739Z,40.63
2018-12-30T19:57:17.718Z,39.93
2018-12-30T19:59:46.117Z,38.70
2018-12-30T20:02:14.735Z,38.30
2018-12-30T20:04:43.128Z,38.27
2018-12-30T20:07:11.524Z,38.07
2018-12-30T20:09:39.953Z,38.20
2018-12-30T20:12:08.413Z,37.20
2018-12-30T20:14:36.798Z,35.47
2018-12-30T20:17:10.222Z,37.77
2018-12-30T20:19:38.929Z,37.10
2018-12-30T20:22:07.588Z,38.00
2018-12-30T20:24:36.195Z,39.03
2018-12-30T20:27:04.715Z,39.40
2018-12-30T20:29:33.107Z,39.63
2018-12-30T20:32:07.135Z,38.70
2018-12-30T20:34:43.203Z,40.93
2018-12-30T20:37:14.275Z,38.17
2018-12-30T20:39:43.797Z,39.27
2018-12-30T20:42:15.190Z,37.77
2018-12-30T20:44:44.818Z,37.33
2018-12-30T20:47:15.679Z,39.63
2018-12-30T20:49:45.700Z,36.97
2018-12-30T20:52:21.350Z,36.77
2018-12-30T20:54:52.786Z,37.90
2018-12-30T20:57:21.322Z,37.80
2018-12-30T20:59:49.713Z,36.90
2018-12-30T21:02:18.183Z,36.90
2018-12-30T21:04:46.624Z,36.07
2018-12-30T21:07:15.032Z,38.10
2018-12-30T21:09:43.439Z,40.07
2018-12-30T21:12:11.882Z,38.93
2018-12-30T21:14:40.290Z,39.00
2018-12-30T21:17:08.684Z,36.30
2018-12-30T21:19:37.074Z,37.80
2018-12-30T21:22:05.491Z,38.37
2018-12-30T21:24:33.965Z,36.80
2018-12-30T21:27:02.346Z,36.83
2018-12-30T21:29:31.018Z,37.83
2018-12-30T21:31:59.450Z,37.70
2018-12-30T21:34:27.865Z,38.03
2018-12-30T21:36:56.279Z,36.27
2018-12-30T21:39:24.672Z,37.03
2018-12-30T21:41:53.065Z,38.50
2018-12-30T21:44:21.880Z,39.03
2018-12-30T21:46:50.269Z,38.90
2018-12-30T21:49:19.061Z,38.77
2018-12-30T21:51:47.438Z,37.07
2018-12-30T21:54:15.824Z,38.77
2018-12-30T21:56:44.491Z,38.60
2018-12-30T21:59:13.179Z,39.27
2018-12-30T22:01:41.569Z,37.10
2018-12-30T22:04:10.174Z,39.43
2018-12-30T22:06:38.842Z,37.87
2018-12-30T22:09:07.226Z,38.50
2018-12-30T22:11:35.758Z,38.07
2018-12-30T22:14:05.790Z,41.10
2018-12-30T22:16:34.472Z,38.73
2018-12-30T22:19:02.865Z,40.27
2018-12-30T22:21:31.247Z,41.23
2018-12-30T22:23:59.642Z,38.73
2018-12-30T22:26:29.590Z,39.00
2018-12-30T22:28:58.232Z,38.30
2018-12-30T22:31:26.624Z,39.77
2018-12-30T22:34:00.115Z,37.97
2018-12-30T22:36:28.519Z,38.70
2018-12-30T22:38:57.279Z,39.27
2018-12-30T22:41:28.459Z,42.33
2018-12-30T22:43:57.665Z,40.50
2018-12-30T22:46:31.490Z,40.33
2018-12-30T22:48:59.932Z,40.60
2018-12-30T22:51:28.319Z,39.00
2018-12-30T22:53:56.722Z,39.13
2018-12-30T22:56:25.238Z,39.80
2018-12-30T22:58:53.638Z,40.30
2018-12-30T23:01:22.646Z,37.73
2018-12-30T23:03:51.028Z,40.07
2018-12-30T23:06:19.617Z,42.03
2018-12-30T23:08:48.025Z,39.93
2018-12-30T23:11:16.406Z,41.43
2018-12-30T23:13:44.795Z,40.13
2018-12-30T23:16:13.177Z,41.23
2018-12-30T23:18:41.992Z,41.97
2018-12-30T23:21:10.683Z,41.63
2018-12-30T23:23:39.365Z,42.27
2018-12-30T23:26:07.757Z,41.33
2018-12-30T23:28:36.158Z,40.70
2018-12-30T23:31:04.557Z,41.53
2018-12-30T23:33:33.295Z,39.33
2018-12-30T23:36:01.692Z,39.20
2018-12-30T23:38:30.074Z,41.17
2018-12-30T23:40:58.733Z,40.30
2018-12-30T23:43:27.860Z,39.83
2018-12-30T23:45:56.255Z,42.17
2018-12-30T23:48:25.002Z,38.60
2018-12-30T23:50:53.686Z,39.77
2018-12-30T23:53:22.576Z,43.30
2018-12-30T23:55:51.814Z,42.90
2018-12-30T23:58:20.564Z,41.80
